sensor_id;sensor_type;location;lat;lon;timestamp;pressure;altitude;pressure_sealevel;temperature;humidity
38530;BME280;24301;54.332;48.386;2023-08-06T00:02:23;99280.97;;;23.42;57.37
38530;BME280;24301;54.332;48.386;2023-08-06T00:04:49;99269.84;;;23.34;57.96
38530;BME280;24301;54.332;48.386;2023-08-06T00:07:15;99274.63;;;23.29;57.86
38530;BME280;24301;54.332;48.386;2023-08-06T00:09:41;99274.00;;;23.25;58.18
38530;BME280;24301;54.332;48.386;2023-08-06T00:12:07;99276.56;;;23.27;58.01
38530;BME280;24301;54.332;48.386;2023-08-06T00:14:33;99265.94;;;23.25;58.10
38530;BME280;24301;54.332;48.386;2023-08-06T00:16:58;99274.25;;;23.35;58.00
38530;BME280;24301;54.332;48.386;2023-08-06T00:19:24;99274.09;;;23.38;57.79
38530;BME280;24301;54.332;48.386;2023-08-06T00:21:50;99276.09;;;23.34;57.74
38530;BME280;24301;54.332;48.386;2023-08-06T00:24:16;99283.56;;;23.29;57.90
38530;BME280;24301;54.332;48.386;2023-08-06T00:26:42;99275.97;;;23.21;58.00
38530;BME280;24301;54.332;48.386;2023-08-06T00:29:07;99282.47;;;23.17;58.16
38530;BME280;24301;54.332;48.386;2023-08-06T00:31:33;99282.81;;;23.11;58.36
38530;BME280;24301;54.332;48.386;2023-08-06T00:33:59;99295.38;;;23.10;58.25
38530;BME280;24301;54.332;48.386;2023-08-06T00:36:25;99288.38;;;23.08;58.08
38530;BME280;24301;54.332;48.386;2023-08-06T00:38:53;99296.63;;;23.05;58.35
38530;BME280;24301;54.332;48.386;2023-08-06T00:41:18;99286.28;;;22.99;58.17
38530;BME280;24301;54.332;48.386;2023-08-06T00:43:44;99290.00;;;22.96;58.49
38530;BME280;24301;54.332;48.386;2023-08-06T00:46:11;99292.78;;;22.94;58.45
38530;BME280;24301;54.332;48.386;2023-08-06T00:48:37;99295.28;;;22.98;58.44
38530;BME280;24301;54.332;48.386;2023-08-06T00:51:03;99293.28;;;23.01;58.34
38530;BME280;24301;54.332;48.386;2023-08-06T00:53:29;99293.44;;;22.98;58.24
38530;BME280;24301;54.332;48.386;2023-08-06T00:55:55;99294.31;;;22.99;58.50
38530;BME280;24301;54.332;48.386;2023-08-06T00:58:21;99292.97;;;23.06;58.33
38530;BME280;24301;54.332;48.386;2023-08-06T01:00:47;99293.53;;;23.11;57.79
38530;BME280;24301;54.332;48.386;2023-08-06T01:03:14;99297.41;;;23.21;57.68
38530;BME280;24301;54.332;48.386;2023-08-06T01:05:41;99295.31;;;23.27;57.56
38530;BME280;24301;54.332;48.386;2023-08-06T01:08:35;99300.28;;;23.33;57.28
38530;BME280;24301;54.332;48.386;2023-08-06T01:11:46;99311.63;;;23.38;57.35
38530;BME280;24301;54.332;48.386;2023-08-06T01:14:23;99315.06;;;23.40;56.88
38530;BME280;24301;54.332;48.386;2023-08-06T01:16:54;99319.81;;;23.35;57.01
38530;BME280;24301;54.332;48.386;2023-08-06T01:19:21;99326.25;;;23.32;56.90
38530;BME280;24301;54.332;48.386;2023-08-06T01:21:47;99322.22;;;23.39;56.75
38530;BME280;24301;54.332;48.386;2023-08-06T01:24:13;99328.75;;;23.50;56.32
38530;BME280;24301;54.332;48.386;2023-08-06T01:26:44;99326.63;;;23.55;56.13
38530;BME280;24301;54.332;48.386;2023-08-06T01:31:44;99327.09;;;23.33;56.72
38530;BME280;24301;54.332;48.386;2023-08-06T01:34:17;99331.38;;;23.21;57.26
38530;BME280;24301;54.332;48.386;2023-08-06T01:36:43;99332.91;;;23.10;57.19
38530;BME280;24301;54.332;48.386;2023-08-06T01:39:10;99334.03;;;23.21;57.42
38530;BME280;24301;54.332;48.386;2023-08-06T01:41:36;99329.03;;;23.45;56.78
38530;BME280;24301;54.332;48.386;2023-08-06T01:44:03;99329.00;;;23.74;56.28
38530;BME280;24301;54.332;48.386;2023-08-06T01:46:28;99338.50;;;24.22;55.43
38530;BME280;24301;54.332;48.386;2023-08-06T01:48:54;99337.53;;;24.50;54.29
38530;BME280;24301;54.332;48.386;2023-08-06T01:51:20;99346.34;;;24.80;53.65
38530;BME280;24301;54.332;48.386;2023-08-06T01:53:46;99329.50;;;25.04;52.68
38530;BME280;24301;54.332;48.386;2023-08-06T01:56:11;99341.53;;;25.11;52.25
38530;BME280;24301;54.332;48.386;2023-08-06T01:58:37;99340.91;;;25.20;52.12
38530;BME280;24301;54.332;48.386;2023-08-06T02:01:03;99346.38;;;25.32;51.55
38530;BME280;24301;54.332;48.386;2023-08-06T02:03:29;99335.31;;;25.49;51.24
38530;BME280;24301;54.332;48.386;2023-08-06T02:05:55;99339.41;;;25.68;50.86
38530;BME280;24301;54.332;48.386;2023-08-06T02:08:21;99337.38;;;25.96;50.17
38530;BME280;24301;54.332;48.386;2023-08-06T02:10:46;99338.56;;;26.29;49.00
38530;BME280;24301;54.332;48.386;2023-08-06T02:13:12;99339.94;;;26.59;48.22
38530;BME280;24301;54.332;48.386;2023-08-06T02:15:44;99349.03;;;26.94;47.25
38530;BME280;24301;54.332;48.386;2023-08-06T02:18:13;99345.03;;;27.34;46.71
38530;BME280;24301;54.332;48.386;2023-08-06T02:20:40;99340.16;;;27.50;45.56
38530;BME280;24301;54.332;48.386;2023-08-06T02:23:06;99342.41;;;27.68;45.45
38530;BME280;24301;54.332;48.386;2023-08-06T02:25:32;99348.50;;;27.81;44.62
38530;BME280;24301;54.332;48.386;2023-08-06T02:27:59;99351.19;;;28.04;44.36
38530;BME280;24301;54.332;48.386;2023-08-06T02:30:25;99348.00;;;28.22;44.05
38530;BME280;24301;54.332;48.386;2023-08-06T02:32:50;99357.59;;;28.47;43.18
38530;BME280;24301;54.332;48.386;2023-08-06T02:35:16;99347.75;;;28.58;42.90
38530;BME280;24301;54.332;48.386;2023-08-06T02:37:42;99354.09;;;28.89;42.53
38530;BME280;24301;54.332;48.386;2023-08-06T02:40:08;99350.00;;;29.16;41.31
38530;BME280;24301;54.332;48.386;2023-08-06T02:42:34;99356.69;;;29.33;41.22
38530;BME280;24301;54.332;48.386;2023-08-06T02:44:59;99352.97;;;29.34;41.36
38530;BME280;24301;54.332;48.386;2023-08-06T02:47:25;99349.78;;;29.81;40.44
38530;BME280;24301;54.332;48.386;2023-08-06T02:49:51;99355.34;;;30.21;39.60
38530;BME280;24301;54.332;48.386;2023-08-06T02:52:18;99352.81;;;30.59;39.18
38530;BME280;24301;54.332;48.386;2023-08-06T02:54:44;99351.38;;;30.84;38.49
38530;BME280;24301;54.332;48.386;2023-08-06T02:57:10;99353.38;;;31.02;38.27
38530;BME280;24301;54.332;48.386;2023-08-06T02:59:36;99347.63;;;31.24;37.66
38530;BME280;24301;54.332;48.386;2023-08-06T03:02:09;99347.16;;;31.39;37.40
38530;BME280;24301;54.332;48.386;2023-08-06T03:04:45;99353.56;;;31.48;37.44
38530;BME280;24301;54.332;48.386;2023-08-06T03:07:12;99358.28;;;31.84;36.69
38530;BME280;24301;54.332;48.386;2023-08-06T03:09:47;99364.16;;;32.53;36.03
38530;BME280;24301;54.332;48.386;2023-08-06T03:12:13;99369.78;;;32.88;34.87
38530;BME280;24301;54.332;48.386;2023-08-06T03:14:39;99371.28;;;33.35;34.08
38530;BME280;24301;54.332;48.386;2023-08-06T03:17:07;99369.13;;;34.08;33.71
38530;BME280;24301;54.332;48.386;2023-08-06T03:19:33;99372.06;;;34.23;33.15
38530;BME280;24301;54.332;48.386;2023-08-06T03:21:58;99375.91;;;34.72;32.33
38530;BME280;24301;54.332;48.386;2023-08-06T03:24:25;99380.69;;;34.94;31.72
38530;BME280;24301;54.332;48.386;2023-08-06T03:26:51;99386.19;;;35.11;31.82
38530;BME280;24301;54.332;48.386;2023-08-06T03:29:17;99383.09;;;35.14;31.01
38530;BME280;24301;54.332;48.386;2023-08-06T03:31:43;99384.00;;;35.71;30.69
38530;BME280;24301;54.332;48.386;2023-08-06T03:34:12;99392.78;;;36.06;29.90
38530;BME280;24301;54.332;48.386;2023-08-06T03:36:39;99390.00;;;36.46;29.44
38530;BME280;24301;54.332;48.386;2023-08-06T03:39:06;99401.44;;;36.96;28.54
38530;BME280;24301;54.332;48.386;2023-08-06T03:41:32;99403.00;;;36.76;28.56
38530;BME280;24301;54.332;48.386;2023-08-06T03:43:58;99407.53;;;36.84;28.48
38530;BME280;24301;54.332;48.386;2023-08-06T03:46:26;99401.22;;;37.06;28.49
38530;BME280;24301;54.332;48.386;2023-08-06T03:48:52;99401.50;;;37.12;27.93
38530;BME280;24301;54.332;48.386;2023-08-06T03:51:18;99395.56;;;36.61;28.72
38530;BME280;24301;54.332;48.386;2023-08-06T03:53:46;99398.72;;;36.73;28.37
38530;BME280;24301;54.332;48.386;2023-08-06T03:56:11;99401.59;;;37.03;28.09
38530;BME280;24301;54.332;48.386;2023-08-06T03:58:38;99409.91;;;37.63;27.58
38530;BME280;24301;54.332;48.386;2023-08-06T04:01:04;99414.91;;;37.75;27.61
38530;BME280;24301;54.332;48.386;2023-08-06T04:03:48;99407.72;;;38.56;26.69
38530;BME280;24301;54.332;48.386;2023-08-06T04:06:14;99406.78;;;39.07;26.07
38530;BME280;24301;54.332;48.386;2023-08-06T04:08:39;99403.59;;;39.32;25.98
38530;BME280;24301;54.332;48.386;2023-08-06T04:11:07;99415.06;;;40.13;24.93
38530;BME280;24301;54.332;48.386;2023-08-06T04:13:35;99421.25;;;40.97;24.27
38530;BME280;24301;54.332;48.386;2023-08-06T04:16:04;99428.66;;;41.64;23.51
38530;BME280;24301;54.332;48.386;2023-08-06T04:18:31;99427.00;;;42.15;22.90
38530;BME280;24301;54.332;48.386;2023-08-06T04:20:57;99434.53;;;42.47;22.76
38530;BME280;24301;54.332;48.386;2023-08-06T04:23:23;99430.47;;;42.88;21.94
38530;BME280;24301;54.332;48.386;2023-08-06T04:25:56;99441.38;;;43.02;21.53
38530;BME280;24301;54.332;48.386;2023-08-06T04:28:23;99442.31;;;42.04;21.43
38530;BME280;24301;54.332;48.386;2023-08-06T04:30:50;99439.47;;;40.98;22.63
38530;BME280;24301;54.332;48.386;2023-08-06T04:33:16;99429.84;;;40.60;23.23
38530;BME280;24301;54.332;48.386;2023-08-06T04:35:44;99428.94;;;40.40;23.13
38530;BME280;24301;54.332;48.386;2023-08-06T04:38:10;99438.28;;;40.03;23.32
38530;BME280;24301;54.332;48.386;2023-08-06T04:40:36;99440.22;;;40.58;23.31
38530;BME280;24301;54.332;48.386;2023-08-06T04:43:02;99446.69;;;41.19;22.63
38530;BME280;24301;54.332;48.386;2023-08-06T04:45:31;99436.41;;;40.59;22.72
38530;BME280;24301;54.332;48.386;2023-08-06T04:47:57;99426.53;;;40.23;22.90
38530;BME280;24301;54.332;48.386;2023-08-06T04:50:23;99422.19;;;39.65;23.33
38530;BME280;24301;54.332;48.386;2023-08-06T04:52:48;99437.47;;;40.09;23.20
38530;BME280;24301;54.332;48.386;2023-08-06T04:55:14;99432.44;;;40.96;22.69
38530;BME280;24301;54.332;48.386;2023-08-06T04:57:40;99438.19;;;41.61;21.59
38530;BME280;24301;54.332;48.386;2023-08-06T05:00:06;99448.78;;;41.44;21.72
38530;BME280;24301;54.332;48.386;2023-08-06T05:02:32;99438.19;;;41.41;21.47
38530;BME280;24301;54.332;48.386;2023-08-06T05:05:00;99444.13;;;41.25;21.57
38530;BME280;24301;54.332;48.386;2023-08-06T05:07:25;99441.19;;;41.26;21.74
38530;BME280;24301;54.332;48.386;2023-08-06T05:09:51;99441.16;;;41.06;21.18
38530;BME280;24301;54.332;48.386;2023-08-06T05:12:17;99436.19;;;40.68;21.71
38530;BME280;24301;54.332;48.386;2023-08-06T05:14:43;99430.00;;;40.52;21.67
38530;BME280;24301;54.332;48.386;2023-08-06T05:17:08;99429.25;;;40.72;21.57
38530;BME280;24301;54.332;48.386;2023-08-06T05:19:34;99435.03;;;41.31;21.23
38530;BME280;24301;54.332;48.386;2023-08-06T05:22:00;99440.75;;;41.29;21.17
38530;BME280;24301;54.332;48.386;2023-08-06T05:24:27;99431.22;;;41.32;21.56
38530;BME280;24301;54.332;48.386;2023-08-06T05:26:53;99427.16;;;41.07;21.70
38530;BME280;24301;54.332;48.386;2023-08-06T05:29:18;99432.47;;;41.09;21.92
38530;BME280;24301;54.332;48.386;2023-08-06T05:31:44;99430.28;;;40.71;21.54
38530;BME280;24301;54.332;48.386;2023-08-06T05:34:10;99421.66;;;40.87;21.56
38530;BME280;24301;54.332;48.386;2023-08-06T05:36:36;99432.25;;;40.90;21.04
38530;BME280;24301;54.332;48.386;2023-08-06T05:39:02;99433.50;;;41.15;21.03
38530;BME280;24301;54.332;48.386;2023-08-06T05:41:28;99432.75;;;42.00;20.38
38530;BME280;24301;54.332;48.386;2023-08-06T05:43:53;99432.88;;;42.32;19.62
38530;BME280;24301;54.332;48.386;2023-08-06T05:46:19;99443.22;;;41.85;20.37
38530;BME280;24301;54.332;48.386;2023-08-06T05:48:45;99432.44;;;40.96;20.87
38530;BME280;24301;54.332;48.386;2023-08-06T05:51:10;99429.50;;;40.21;21.80
38530;BME280;24301;54.332;48.386;2023-08-06T05:53:38;99434.53;;;40.80;21.54
38530;BME280;24301;54.332;48.386;2023-08-06T05:56:04;99426.94;;;40.96;21.48
38530;BME280;24301;54.332;48.386;2023-08-06T05:58:30;99428.84;;;40.82;21.38
38530;BME280;24301;54.332;48.386;2023-08-06T06:00:56;99427.03;;;40.33;21.93
38530;BME280;24301;54.332;48.386;2023-08-06T06:03:22;99425.69;;;39.80;22.35
38530;BME280;24301;54.332;48.386;2023-08-06T06:05:48;99431.00;;;39.82;22.61
38530;BME280;24301;54.332;48.386;2023-08-06T06:08:14;99425.63;;;39.74;22.58
38530;BME280;24301;54.332;48.386;2023-08-06T06:10:39;99423.78;;;40.23;22.51
38530;BME280;24301;54.332;48.386;2023-08-06T06:13:05;99425.13;;;40.41;22.30
38530;BME280;24301;54.332;48.386;2023-08-06T06:15:31;99423.75;;;40.72;22.11
38530;BME280;24301;54.332;48.386;2023-08-06T06:17:57;99423.34;;;40.88;21.64
38530;BME280;24301;54.332;48.386;2023-08-06T06:20:22;99434.53;;;40.18;22.45
38530;BME280;24301;54.332;48.386;2023-08-06T06:22:48;99424.34;;;40.05;22.82
38530;BME280;24301;54.332;48.386;2023-08-06T06:25:14;99432.66;;;40.80;22.43
38530;BME280;24301;54.332;48.386;2023-08-06T06:27:40;99425.72;;;41.32;21.61
38530;BME280;24301;54.332;48.386;2023-08-06T06:30:06;99433.53;;;41.08;21.57
38530;BME280;24301;54.332;48.386;2023-08-06T06:32:32;99424.41;;;41.14;21.45
38530;BME280;24301;54.332;48.386;2023-08-06T06:34:59;99419.13;;;41.06;21.17
38530;BME280;24301;54.332;48.386;2023-08-06T06:37:25;99421.38;;;40.62;21.72
38530;BME280;24301;54.332;48.386;2023-08-06T06:39:51;99434.78;;;40.85;21.29
38530;BME280;24301;54.332;48.386;2023-08-06T06:42:17;99423.25;;;39.99;22.41
38530;BME280;24301;54.332;48.386;2023-08-06T06:44:46;99423.25;;;40.55;21.93
38530;BME280;24301;54.332;48.386;2023-08-06T06:47:11;99415.03;;;40.68;21.88
38530;BME280;24301;54.332;48.386;2023-08-06T06:49:37;99421.53;;;40.33;22.20
38530;BME280;24301;54.332;48.386;2023-08-06T06:52:03;99418.63;;;40.55;21.88
38530;BME280;24301;54.332;48.386;2023-08-06T06:54:29;99414.06;;;41.16;21.93
38530;BME280;24301;54.332;48.386;2023-08-06T06:56:55;99424.19;;;41.63;21.30
38530;BME280;24301;54.332;48.386;2023-08-06T06:59:36;99430.00;;;42.00;20.86
38530;BME280;24301;54.332;48.386;2023-08-06T07:02:02;99416.13;;;41.61;20.83
38530;BME280;24301;54.332;48.386;2023-08-06T07:04:27;99410.16;;;41.85;20.68
38530;BME280;24301;54.332;48.386;2023-08-06T07:06:53;99405.34;;;42.19;20.39
38530;BME280;24301;54.332;48.386;2023-08-06T07:09:19;99413.34;;;42.34;20.54
38530;BME280;24301;54.332;48.386;2023-08-06T07:11:45;99398.28;;;42.69;20.39
38530;BME280;24301;54.332;48.386;2023-08-06T07:14:11;99402.16;;;43.18;19.72
38530;BME280;24301;54.332;48.386;2023-08-06T07:16:37;99402.22;;;43.12;19.51
38530;BME280;24301;54.332;48.386;2023-08-06T07:19:03;99403.69;;;42.82;19.77
38530;BME280;24301;54.332;48.386;2023-08-06T07:21:28;99398.84;;;43.10;19.83
38530;BME280;24301;54.332;48.386;2023-08-06T07:23:54;99389.53;;;43.92;18.99
38530;BME280;24301;54.332;48.386;2023-08-06T07:26:20;99398.84;;;44.28;18.84
38530;BME280;24301;54.332;48.386;2023-08-06T07:28:46;99389.66;;;44.16;18.84
38530;BME280;24301;54.332;48.386;2023-08-06T07:31:11;99386.38;;;44.38;18.50
38530;BME280;24301;54.332;48.386;2023-08-06T07:33:37;99387.47;;;44.37;18.72
38530;BME280;24301;54.332;48.386;2023-08-06T07:36:11;99386.16;;;44.51;18.52
38530;BME280;24301;54.332;48.386;2023-08-06T07:38:37;99376.03;;;44.75;17.80
38530;BME280;24301;54.332;48.386;2023-08-06T07:41:04;99378.81;;;44.87;17.93
38530;BME280;24301;54.332;48.386;2023-08-06T07:43:30;99381.28;;;45.43;17.53
38530;BME280;24301;54.332;48.386;2023-08-06T07:45:59;99373.66;;;45.03;17.69
38530;BME280;24301;54.332;48.386;2023-08-06T07:48:26;99382.53;;;44.81;18.29
38530;BME280;24301;54.332;48.386;2023-08-06T07:50:53;99379.66;;;44.45;18.41
38530;BME280;24301;54.332;48.386;2023-08-06T07:53:23;99374.53;;;44.00;18.84
38530;BME280;24301;54.332;48.386;2023-08-06T07:55:58;99373.47;;;43.82;19.13
38530;BME280;24301;54.332;48.386;2023-08-06T07:58:24;99374.81;;;44.10;19.07
38530;BME280;24301;54.332;48.386;2023-08-06T08:00:51;99365.75;;;44.52;18.41
38530;BME280;24301;54.332;48.386;2023-08-06T08:03:17;99369.09;;;43.93;18.62
38530;BME280;24301;54.332;48.386;2023-08-06T08:05:43;99361.47;;;43.70;18.77
38530;BME280;24301;54.332;48.386;2023-08-06T08:08:09;99364.00;;;43.34;19.14
38530;BME280;24301;54.332;48.386;2023-08-06T08:10:36;99356.00;;;42.04;20.32
38530;BME280;24301;54.332;48.386;2023-08-06T08:13:03;99363.81;;;41.41;21.10
38530;BME280;24301;54.332;48.386;2023-08-06T08:15:30;99355.13;;;40.57;21.78
38530;BME280;24301;54.332;48.386;2023-08-06T08:17:56;99350.13;;;39.63;22.93
38530;BME280;24301;54.332;48.386;2023-08-06T08:20:22;99345.34;;;37.91;24.99
38530;BME280;24301;54.332;48.386;2023-08-06T08:22:48;99355.94;;;36.49;26.19
38530;BME280;24301;54.332;48.386;2023-08-06T08:25:15;99350.03;;;34.76;28.37
38530;BME280;24301;54.332;48.386;2023-08-06T08:27:41;99341.34;;;33.96;30.03
38530;BME280;24301;54.332;48.386;2023-08-06T08:30:09;99340.69;;;33.41;30.08
38530;BME280;24301;54.332;48.386;2023-08-06T08:32:35;99342.84;;;33.03;31.64
38530;BME280;24301;54.332;48.386;2023-08-06T08:35:01;99331.94;;;32.58;31.83
38530;BME280;24301;54.332;48.386;2023-08-06T08:37:27;99328.19;;;31.95;32.90
38530;BME280;24301;54.332;48.386;2023-08-06T08:39:52;99324.34;;;31.60;34.07
38530;BME280;24301;54.332;48.386;2023-08-06T08:42:19;99326.34;;;31.30;33.63
38530;BME280;24301;54.332;48.386;2023-08-06T08:44:45;99322.50;;;31.13;33.99
38530;BME280;24301;54.332;48.386;2023-08-06T08:47:12;99328.53;;;30.96;34.91
38530;BME280;24301;54.332;48.386;2023-08-06T08:49:38;99321.97;;;30.79;34.89
38530;BME280;24301;54.332;48.386;2023-08-06T08:52:07;99330.25;;;30.58;35.09
38530;BME280;24301;54.332;48.386;2023-08-06T08:54:38;99324.97;;;30.37;35.38
38530;BME280;24301;54.332;48.386;2023-08-06T08:57:04;99321.41;;;30.36;35.44
38530;BME280;24301;54.332;48.386;2023-08-06T08:59:32;99319.28;;;30.50;35.54
38530;BME280;24301;54.332;48.386;2023-08-06T09:02:00;99321.13;;;30.39;35.45
38530;BME280;24301;54.332;48.386;2023-08-06T09:04:28;99321.97;;;30.30;35.73
38530;BME280;24301;54.332;48.386;2023-08-06T09:06:58;99314.84;;;30.29;35.28
38530;BME280;24301;54.332;48.386;2023-08-06T09:09:43;99310.28;;;30.20;36.50
38530;BME280;24301;54.332;48.386;2023-08-06T09:12:14;99308.84;;;30.35;35.39
38530;BME280;24301;54.332;48.386;2023-08-06T09:14:40;99311.84;;;30.42;35.19
38530;BME280;24301;54.332;48.386;2023-08-06T09:17:07;99299.88;;;30.35;35.58
38530;BME280;24301;54.332;48.386;2023-08-06T09:19:33;99301.44;;;30.08;35.51
38530;BME280;24301;54.332;48.386;2023-08-06T09:21:59;99296.44;;;30.03;35.66
38530;BME280;24301;54.332;48.386;2023-08-06T09:24:25;99294.66;;;29.82;35.99
38530;BME280;24301;54.332;48.386;2023-08-06T09:26:52;99292.06;;;29.71;36.48
38530;BME280;24301;54.332;48.386;2023-08-06T09:29:18;99291.34;;;29.79;36.34
38530;BME280;24301;54.332;48.386;2023-08-06T09:31:45;99305.63;;;29.91;36.37
38530;BME280;24301;54.332;48.386;2023-08-06T09:34:16;99295.97;;;29.98;36.34
38530;BME280;24301;54.332;48.386;2023-08-06T09:36:43;99303.13;;;30.19;36.10
38530;BME280;24301;54.332;48.386;2023-08-06T09:39:30;99300.22;;;30.01;36.16
38530;BME280;24301;54.332;48.386;2023-08-06T09:41:57;99305.31;;;29.74;37.19
38530;BME280;24301;54.332;48.386;2023-08-06T09:44:24;99303.53;;;29.53;37.81
38530;BME280;24301;54.332;48.386;2023-08-06T09:49:18;99305.41;;;29.63;37.62
38530;BME280;24301;54.332;48.386;2023-08-06T09:51:46;99300.91;;;29.73;37.54
38530;BME280;24301;54.332;48.386;2023-08-06T09:54:12;99300.66;;;29.86;37.51
38530;BME280;24301;54.332;48.386;2023-08-06T09:56:42;99300.63;;;29.76;37.80
38530;BME280;24301;54.332;48.386;2023-08-06T09:59:08;99300.72;;;29.65;38.20
38530;BME280;24301;54.332;48.386;2023-08-06T10:01:35;99299.44;;;29.38;39.55
38530;BME280;24301;54.332;48.386;2023-08-06T10:04:06;99311.56;;;28.91;41.17
38530;BME280;24301;54.332;48.386;2023-08-06T10:06:37;99307.84;;;28.71;41.20
38530;BME280;24301;54.332;48.386;2023-08-06T10:09:06;99300.66;;;28.60;42.52
38530;BME280;24301;54.332;48.386;2023-08-06T10:11:34;99299.13;;;28.79;42.43
38530;BME280;24301;54.332;48.386;2023-08-06T10:14:08;99303.22;;;28.94;43.33
38530;BME280;24301;54.332;48.386;2023-08-06T10:16:41;99307.31;;;28.56;44.70
38530;BME280;24301;54.332;48.386;2023-08-06T10:19:12;99301.28;;;28.64;43.77
38530;BME280;24301;54.332;48.386;2023-08-06T10:21:38;99302.91;;;28.55;43.54
38530;BME280;24301;54.332;48.386;2023-08-06T10:24:07;99297.31;;;28.68;43.13
38530;BME280;24301;54.332;48.386;2023-08-06T10:26:36;99285.16;;;28.95;41.49
38530;BME280;24301;54.332;48.386;2023-08-06T10:29:37;99279.44;;;29.19;41.41
38530;BME280;24301;54.332;48.386;2023-08-06T10:32:03;99277.25;;;29.13;40.37
38530;BME280;24301;54.332;48.386;2023-08-06T10:34:58;99293.84;;;28.99;39.83
38530;BME280;24301;54.332;48.386;2023-08-06T10:37:34;99289.09;;;28.70;41.62
38530;BME280;24301;54.332;48.386;2023-08-06T10:40:01;99292.03;;;28.45;43.71
38530;BME280;24301;54.332;48.386;2023-08-06T10:42:29;99282.47;;;28.62;42.83
38530;BME280;24301;54.332;48.386;2023-08-06T10:45:11;99267.78;;;28.76;41.91
38530;BME280;24301;54.332;48.386;2023-08-06T10:47:38;99273.06;;;28.78;40.84
38530;BME280;24301;54.332;48.386;2023-08-06T10:50:10;99272.09;;;28.79;41.05
38530;BME280;24301;54.332;48.386;2023-08-06T10:52:36;99266.69;;;28.79;41.41
38530;BME280;24301;54.332;48.386;2023-08-06T10:55:02;99274.47;;;28.93;41.29
38530;BME280;24301;54.332;48.386;2023-08-06T10:57:29;99269.09;;;29.03;41.03
38530;BME280;24301;54.332;48.386;2023-08-06T10:59:54;99249.78;;;29.08;40.50
38530;BME280;24301;54.332;48.386;2023-08-06T11:02:20;99264.00;;;28.79;40.19
38530;BME280;24301;54.332;48.386;2023-08-06T11:04:48;99267.66;;;28.57;39.68
38530;BME280;24301;54.332;48.386;2023-08-06T11:07:14;99260.25;;;28.37;39.90
38530;BME280;24301;54.332;48.386;2023-08-06T11:09:39;99268.59;;;28.46;40.25
38530;BME280;24301;54.332;48.386;2023-08-06T11:12:10;99267.06;;;28.53;39.68
38530;BME280;24301;54.332;48.386;2023-08-06T11:14:36;99252.88;;;28.39;39.08
38530;BME280;24301;54.332;48.386;2023-08-06T11:17:02;99263.75;;;28.49;39.81
38530;BME280;24301;54.332;48.386;2023-08-06T11:19:28;99255.19;;;28.65;40.25
38530;BME280;24301;54.332;48.386;2023-08-06T11:21:54;99249.72;;;28.77;40.12
38530;BME280;24301;54.332;48.386;2023-08-06T11:24:20;99252.19;;;28.80;39.36
38530;BME280;24301;54.332;48.386;2023-08-06T11:26:46;99251.38;;;28.68;40.27
38530;BME280;24301;54.332;48.386;2023-08-06T11:29:12;99238.84;;;28.67;39.93
38530;BME280;24301;54.332;48.386;2023-08-06T11:31:38;99240.03;;;28.74;39.76
38530;BME280;24301;54.332;48.386;2023-08-06T11:34:03;99250.97;;;28.73;39.05
38530;BME280;24301;54.332;48.386;2023-08-06T11:36:33;99245.50;;;28.63;39.25
38530;BME280;24301;54.332;48.386;2023-08-06T11:39:00;99235.75;;;28.50;37.05
38530;BME280;24301;54.332;48.386;2023-08-06T11:41:29;99233.19;;;28.49;38.10
38530;BME280;24301;54.332;48.386;2023-08-06T11:43:55;99238.06;;;28.55;37.84
38530;BME280;24301;54.332;48.386;2023-08-06T11:46:21;99248.53;;;28.48;37.00
38530;BME280;24301;54.332;48.386;2023-08-06T11:48:55;99253.59;;;28.42;39.06
38530;BME280;24301;54.332;48.386;2023-08-06T11:51:25;99222.84;;;28.33;38.21
38530;BME280;24301;54.332;48.386;2023-08-06T11:54:00;99221.84;;;28.55;37.65
38530;BME280;24301;54.332;48.386;2023-08-06T11:56:27;99227.31;;;28.65;37.12
38530;BME280;24301;54.332;48.386;2023-08-06T11:58:54;99233.72;;;28.43;36.14
38530;BME280;24301;54.332;48.386;2023-08-06T12:01:20;99248.78;;;28.24;38.19
38530;BME280;24301;54.332;48.386;2023-08-06T12:03:45;99232.59;;;28.24;38.59
38530;BME280;24301;54.332;48.386;2023-08-06T12:06:11;99229.53;;;28.17;37.79
38530;BME280;24301;54.332;48.386;2023-08-06T12:08:37;99209.25;;;28.11;38.65
38530;BME280;24301;54.332;48.386;2023-08-06T12:11:03;99224.88;;;28.08;38.12
38530;BME280;24301;54.332;48.386;2023-08-06T12:13:29;99203.78;;;28.02;37.37
38530;BME280;24301;54.332;48.386;2023-08-06T12:15:55;99218.78;;;27.94;37.73
38530;BME280;24301;54.332;48.386;2023-08-06T12:18:22;99210.69;;;27.94;37.62
38530;BME280;24301;54.332;48.386;2023-08-06T12:20:48;99207.88;;;27.96;37.91
38530;BME280;24301;54.332;48.386;2023-08-06T12:23:17;99212.22;;;28.20;37.99
38530;BME280;24301;54.332;48.386;2023-08-06T12:25:43;99211.16;;;28.32;36.78
38530;BME280;24301;54.332;48.386;2023-08-06T12:28:10;99207.28;;;28.14;36.61
38530;BME280;24301;54.332;48.386;2023-08-06T12:30:36;99210.56;;;27.96;36.82
38530;BME280;24301;54.332;48.386;2023-08-06T12:33:01;99210.41;;;28.09;37.43
38530;BME280;24301;54.332;48.386;2023-08-06T12:35:27;99197.47;;;28.13;37.42
38530;BME280;24301;54.332;48.386;2023-08-06T12:37:53;99196.56;;;28.35;36.78
38530;BME280;24301;54.332;48.386;2023-08-06T12:40:20;99195.09;;;28.52;37.23
38530;BME280;24301;54.332;48.386;2023-08-06T12:42:46;99208.78;;;28.60;36.92
38530;BME280;24301;54.332;48.386;2023-08-06T12:45:12;99194.81;;;28.55;37.36
38530;BME280;24301;54.332;48.386;2023-08-06T12:47:38;99201.94;;;28.56;36.96
38530;BME280;24301;54.332;48.386;2023-08-06T12:50:04;99208.47;;;28.53;36.67
38530;BME280;24301;54.332;48.386;2023-08-06T12:52:30;99203.78;;;28.34;37.50
38530;BME280;24301;54.332;48.386;2023-08-06T12:54:55;99187.00;;;28.31;36.80
38530;BME280;24301;54.332;48.386;2023-08-06T12:57:24;99187.84;;;28.31;37.90